createdAt,value
2017-12-27T00:00:51.394Z,3.37
2017-12-27T00:03:24.639Z,3.10
2017-12-27T00:05:58.499Z,3.27
2017-12-27T00:08:31.760Z,3.30
2017-12-27T00:11:04.919Z,3.10
2017-12-27T00:13:38.123Z,3.13
2017-12-27T00:16:12.182Z,2.97
2017-12-27T00:18:45.380Z,3.40
2017-12-27T00:24:19.313Z,3.92
2017-12-27T00:26:52.502Z,3.30
2017-12-27T00:29:25.718Z,2.90
2017-12-27T00:31:53.453Z,2.97
2017-12-27T00:34:21.216Z,3.00
2017-12-27T00:36:49.537Z,2.80
2017-12-27T00:39:16.991Z,3.07
2017-12-27T00:41:44.433Z,2.90
2017-12-27T00:44:11.883Z,3.10
2017-12-27T00:46:39.325Z,2.80
2017-12-27T00:49:06.786Z,3.07
2017-12-27T00:51:34.240Z,2.90
2017-12-27T00:54:01.695Z,3.20
2017-12-27T00:56:29.997Z,2.90
2017-12-27T00:58:57.431Z,2.60
2017-12-27T01:01:25.657Z,2.63
2017-12-27T01:03:53.119Z,2.27
2017-12-27T01:06:20.560Z,2.70
2017-12-27T01:08:48.018Z,2.70
2017-12-27T01:11:15.503Z,2.77
2017-12-27T01:13:42.929Z,2.87
2017-12-27T01:16:11.143Z,2.33
2017-12-27T01:18:38.589Z,2.70
2017-12-27T01:21:06.036Z,2.57
2017-12-27T01:23:34.223Z,2.67
2017-12-27T01:26:01.684Z,2.90
2017-12-27T01:28:29.128Z,2.60
2017-12-27T01:30:57.366Z,2.40
2017-12-27T01:33:24.815Z,2.47
2017-12-27T01:35:52.264Z,2.63
2017-12-27T01:38:19.690Z,2.60
2017-12-27T01:40:47.895Z,2.37
2017-12-27T01:43:15.380Z,2.37
2017-12-27T01:45:42.788Z,2.53
2017-12-27T01:48:10.210Z,2.77
2017-12-27T01:50:37.674Z,2.50
2017-12-27T01:53:05.111Z,2.27
2017-12-27T01:55:32.553Z,2.60
2017-12-27T01:58:00.777Z,2.53
2017-12-27T02:00:28.219Z,2.40
2017-12-27T02:02:55.666Z,2.27
2017-12-27T02:05:23.865Z,1.97
2017-12-27T02:07:51.327Z,2.37
2017-12-27T02:10:18.779Z,2.53
2017-12-27T02:12:46.226Z,2.20
2017-12-27T02:15:14.444Z,2.40
2017-12-27T02:17:41.905Z,2.07
2017-12-27T02:20:09.368Z,2.30
2017-12-27T02:22:36.823Z,2.13
2017-12-27T02:25:04.286Z,2.30
2017-12-27T02:27:31.731Z,2.20
2017-12-27T02:29:59.190Z,2.13
2017-12-27T02:32:27.412Z,2.33
2017-12-27T02:34:55.626Z,1.83
2017-12-27T02:37:23.071Z,2.40
2017-12-27T02:40:20.266Z,2.17
2017-12-27T02:42:47.717Z,1.90
2017-12-27T02:45:15.918Z,1.97
2017-12-27T02:47:43.378Z,2.17
2017-12-27T02:50:10.836Z,1.87
2017-12-27T02:52:38.297Z,2.00
2017-12-27T02:55:05.738Z,2.00
2017-12-27T02:57:33.938Z,2.00
2017-12-27T03:00:01.392Z,2.17
2017-12-27T03:02:28.851Z,2.00
2017-12-27T03:04:56.304Z,2.10
2017-12-27T03:07:24.515Z,2.20
2017-12-27T03:09:51.942Z,2.10
2017-12-27T03:12:20.165Z,1.80
2017-12-27T03:14:48.381Z,2.00
2017-12-27T03:17:15.827Z,2.10
2017-12-27T03:19:43.266Z,2.10
2017-12-27T03:22:11.476Z,1.80
2017-12-27T03:24:38.914Z,2.00
2017-12-27T03:27:06.350Z,2.00
2017-12-27T03:29:33.811Z,1.80
2017-12-27T03:32:01.293Z,2.00
2017-12-27T03:34:28.728Z,1.80
2017-12-27T03:36:56.942Z,1.43
2017-12-27T03:39:24.395Z,1.80
2017-12-27T03:41:51.839Z,2.10
2017-12-27T03:44:19.301Z,1.80
2017-12-27T03:46:46.739Z,2.00
2017-12-27T03:49:14.191Z,2.00
2017-12-27T03:51:41.618Z,2.07
2017-12-27T03:54:09.082Z,2.00
2017-12-27T03:56:36.507Z,1.80
2017-12-27T03:59:03.955Z,1.70
2017-12-27T04:01:32.684Z,1.87
2017-12-27T04:04:00.140Z,1.60
2017-12-27T04:06:27.601Z,1.70
2017-12-27T04:08:55.025Z,1.70
2017-12-27T04:11:22.471Z,1.77
2017-12-27T04:13:49.915Z,1.67
2017-12-27T04:16:17.379Z,1.83
2017-12-27T04:18:44.816Z,1.87
2017-12-27T04:21:12.254Z,1.70
2017-12-27T04:23:40.484Z,1.53
2017-12-27T04:26:07.927Z,1.67
2017-12-27T04:28:35.355Z,1.57
2017-12-27T04:31:03.561Z,1.63
2017-12-27T04:33:31.009Z,1.57
2017-12-27T04:35:58.457Z,1.73
2017-12-27T04:38:26.648Z,1.60
2017-12-27T04:40:54.874Z,1.60
2017-12-27T04:43:22.294Z,1.80
2017-12-27T04:45:49.727Z,1.60
2017-12-27T04:48:17.176Z,1.73
2017-12-27T04:50:44.631Z,1.50
2017-12-27T04:53:12.075Z,1.70
2017-12-27T04:55:39.501Z,1.60
2017-12-27T04:58:06.968Z,1.63
2017-12-27T05:00:35.160Z,1.67
2017-12-27T05:03:02.859Z,1.63
2017-12-27T05:05:30.296Z,1.50
2017-12-27T05:07:57.751Z,1.60
2017-12-27T05:10:25.198Z,1.50
2017-12-27T05:12:52.647Z,1.50
2017-12-27T05:15:20.847Z,1.80
2017-12-27T05:17:48.971Z,1.73
2017-12-27T05:20:16.414Z,1.70
2017-12-27T05:22:43.867Z,1.60
2017-12-27T05:25:11.325Z,1.70
2017-12-27T05:27:38.774Z,1.70
2017-12-27T05:30:06.231Z,1.63
2017-12-27T05:32:34.431Z,1.50
2017-12-27T05:35:01.879Z,1.50
2017-12-27T05:37:29.320Z,1.40
2017-12-27T05:39:57.543Z,1.50
2017-12-27T05:42:24.978Z,1.50
2017-12-27T05:44:52.415Z,1.40
2017-12-27T05:47:19.858Z,1.57
2017-12-27T05:49:47.318Z,1.87
2017-12-27T05:52:14.771Z,1.40
2017-12-27T05:54:42.214Z,1.60
2017-12-27T05:57:09.673Z,1.70
2017-12-27T05:59:37.118Z,1.50
2017-12-27T06:02:04.576Z,1.50
2017-12-27T06:04:32.040Z,1.50
2017-12-27T06:06:59.504Z,1.57
2017-12-27T06:09:26.990Z,1.50
2017-12-27T06:11:54.417Z,1.37
2017-12-27T06:14:22.675Z,1.77
2017-12-27T06:16:50.122Z,1.60
2017-12-27T06:19:17.580Z,1.57
2017-12-27T06:21:45.034Z,1.53
2017-12-27T06:24:12.491Z,1.50
2017-12-27T06:26:39.927Z,1.37
2017-12-27T06:29:07.367Z,1.50
2017-12-27T06:31:35.583Z,1.60
2017-12-27T06:36:36.968Z,1.70
2017-12-27T06:39:05.251Z,1.50
2017-12-27T06:41:32.699Z,1.60
2017-12-27T06:44:00.185Z,1.43
2017-12-27T06:46:27.618Z,1.40
2017-12-27T06:48:55.166Z,1.30
2017-12-27T06:51:23.363Z,1.63
2017-12-27T06:53:50.844Z,1.47
2017-12-27T06:56:18.270Z,1.70
2017-12-27T06:58:46.483Z,1.60
2017-12-27T07:01:14.704Z,1.70
2017-12-27T07:03:42.155Z,1.83
2017-12-27T07:06:09.611Z,1.70
2017-12-27T07:08:37.064Z,1.63
2017-12-27T07:11:04.518Z,1.67
2017-12-27T07:13:31.981Z,1.80
2017-12-27T07:15:59.434Z,1.67
2017-12-27T07:18:26.894Z,2.10
2017-12-27T07:20:54.350Z,1.53
2017-12-27T07:23:21.807Z,1.60
2017-12-27T07:25:49.223Z,1.53
2017-12-27T07:28:16.666Z,1.50
2017-12-27T07:30:44.102Z,1.47
2017-12-27T07:33:11.558Z,1.57
2017-12-27T07:35:38.994Z,1.40
2017-12-27T07:38:07.232Z,1.60
2017-12-27T07:40:34.673Z,1.60
2017-12-27T07:43:02.114Z,1.50
2017-12-27T07:45:29.610Z,1.50
2017-12-27T07:47:57.054Z,1.60
2017-12-27T07:50:24.518Z,1.60
2017-12-27T07:52:51.973Z,1.40
2017-12-27T07:55:19.412Z,1.57
2017-12-27T07:57:47.641Z,1.60
2017-12-27T08:00:15.979Z,1.40
2017-12-27T08:02:44.201Z,1.50
2017-12-27T08:05:11.650Z,1.47
2017-12-27T08:07:39.092Z,1.50
2017-12-27T08:10:06.557Z,1.60
2017-12-27T08:12:33.990Z,1.70
2017-12-27T08:15:01.488Z,1.57
2017-12-27T08:17:28.886Z,1.90
2017-12-27T08:19:56.328Z,1.60
2017-12-27T08:22:23.782Z,1.80
2017-12-27T08:24:51.244Z,1.70
2017-12-27T08:27:18.693Z,1.70
2017-12-27T08:29:46.122Z,1.70
2017-12-27T08:32:13.579Z,1.83
2017-12-27T08:34:41.035Z,2.13
2017-12-27T08:37:08.501Z,1.83
2017-12-27T08:39:35.936Z,2.03
2017-12-27T08:42:03.384Z,2.10
2017-12-27T08:44:30.808Z,2.20
2017-12-27T08:46:58.246Z,1.90
2017-12-27T08:49:25.695Z,2.43
2017-12-27T08:51:53.136Z,2.20
2017-12-27T08:54:20.578Z,2.40
2017-12-27T08:56:48.021Z,2.40
2017-12-27T08:59:16.239Z,2.40
2017-12-27T09:01:43.696Z,2.60
2017-12-27T09:04:11.150Z,2.60
2017-12-27T09:06:38.596Z,2.40
2017-12-27T09:09:06.810Z,2.90
2017-12-27T09:11:34.246Z,2.80
2017-12-27T09:14:01.726Z,3.00
2017-12-27T09:16:29.917Z,3.17
2017-12-27T09:18:57.366Z,3.00
2017-12-27T09:21:24.817Z,2.40
2017-12-27T09:23:52.258Z,3.27
2017-12-27T09:26:19.694Z,3.13
2017-12-27T09:28:47.139Z,2.77
2017-12-27T09:31:14.586Z,2.97
2017-12-27T09:33:42.973Z,3.30
2017-12-27T09:36:10.385Z,3.53
2017-12-27T09:38:37.829Z,3.70
2017-12-27T09:41:05.282Z,3.87
2017-12-27T09:43:32.714Z,3.67
2017-12-27T09:46:00.163Z,3.57
2017-12-27T09:48:27.621Z,3.90
2017-12-27T09:50:55.840Z,3.53
2017-12-27T09:53:23.278Z,4.23
2017-12-27T09:55:50.741Z,4.07
2017-12-27T09:58:18.211Z,4.40
2017-12-27T10:00:45.671Z,4.20
2017-12-27T10:03:13.114Z,4.20
2017-12-27T10:05:40.540Z,5.00
2017-12-27T10:08:07.998Z,4.20
2017-12-27T10:10:35.447Z,4.13
2017-12-27T10:13:02.896Z,5.50
2017-12-27T10:15:30.351Z,4.73
2017-12-27T10:17:57.808Z,4.97
2017-12-27T10:20:25.245Z,5.23
2017-12-27T10:22:53.462Z,4.80
2017-12-27T10:25:20.911Z,5.60
2017-12-27T10:27:48.372Z,5.63
2017-12-27T10:30:15.808Z,5.60
2017-12-27T10:32:44.055Z,5.73
2017-12-27T10:35:11.490Z,5.83
2017-12-27T10:37:38.935Z,6.00
2017-12-27T10:40:06.388Z,6.13
2017-12-27T10:42:33.835Z,7.05
2017-12-27T10:45:02.113Z,6.63
2017-12-27T10:47:29.679Z,6.63
2017-12-27T10:49:57.923Z,6.47
2017-12-27T10:52:25.375Z,6.60
2017-12-27T10:54:52.827Z,7.33
2017-12-27T10:57:20.331Z,6.73
2017-12-27T10:59:47.757Z,7.00
2017-12-27T11:02:15.228Z,7.07
2017-12-27T11:04:42.685Z,7.10
2017-12-27T11:07:10.125Z,7.10
2017-12-27T11:09:37.580Z,7.33
2017-12-27T11:12:05.774Z,6.97
2017-12-27T11:14:33.233Z,6.93
2017-12-27T11:17:00.679Z,7.13
2017-12-27T11:19:28.150Z,6.93
2017-12-27T11:24:30.376Z,7.47
2017-12-27T11:26:57.825Z,7.37
2017-12-27T11:29:25.272Z,7.60
2017-12-27T11:31:52.718Z,7.27
2017-12-27T11:34:20.939Z,7.03
2017-12-27T11:36:48.387Z,8.13
2017-12-27T11:39:15.854Z,7.97
2017-12-27T11:41:43.292Z,7.53
2017-12-27T11:44:11.492Z,7.80
2017-12-27T11:46:38.940Z,7.47
2017-12-27T11:49:06.387Z,7.63
2017-12-27T11:51:34.610Z,8.07
2017-12-27T11:54:02.042Z,8.03
2017-12-27T11:56:29.485Z,7.67
2017-12-27T11:58:57.690Z,8.13
2017-12-27T12:01:25.171Z,7.37
2017-12-27T12:03:52.598Z,7.33
2017-12-27T12:06:20.126Z,8.03
2017-12-27T12:08:47.526Z,8.07
2017-12-27T12:11:15.720Z,8.07
2017-12-27T12:13:43.190Z,8.50
2017-12-27T12:16:10.648Z,7.70
2017-12-27T12:18:38.094Z,7.97
2017-12-27T12:21:06.309Z,8.30
2017-12-27T12:23:33.769Z,7.80
2017-12-27T12:26:01.201Z,8.07
2017-12-27T12:28:28.633Z,7.60
2017-12-27T12:30:56.070Z,7.43
2017-12-27T12:33:23.508Z,8.07
2017-12-27T12:35:50.967Z,8.33
2017-12-27T12:38:18.427Z,8.20
2017-12-27T12:40:45.862Z,7.73
2017-12-27T12:43:14.174Z,8.23
2017-12-27T12:45:42.040Z,7.90
2017-12-27T12:48:09.485Z,8.90
2017-12-27T12:50:36.942Z,10.45
2017-12-27T12:53:05.165Z,8.73
2017-12-27T12:55:32.626Z,8.27
2017-12-27T12:58:00.086Z,8.10
2017-12-27T13:00:27.517Z,7.73
2017-12-27T13:02:54.979Z,8.30
2017-12-27T13:05:23.190Z,8.03
2017-12-27T13:07:50.636Z,7.53
2017-12-27T13:10:18.726Z,7.97
2017-12-27T13:12:46.162Z,7.47
2017-12-27T13:15:13.642Z,7.93
2017-12-27T13:17:41.097Z,8.07
2017-12-27T13:20:13.853Z,7.60
2017-12-27T13:22:44.564Z,7.70
2017-12-27T13:25:12.047Z,7.73
2017-12-27T13:27:39.491Z,7.63
2017-12-27T13:30:06.961Z,7.40
2017-12-27T13:32:34.474Z,7.47
2017-12-27T13:35:01.926Z,8.00
2017-12-27T13:37:29.383Z,7.77
2017-12-27T13:39:57.593Z,7.73
2017-12-27T13:42:25.805Z,7.53
2017-12-27T13:44:53.258Z,8.07
2017-12-27T13:47:20.762Z,7.53
2017-12-27T13:49:48.191Z,8.03
2017-12-27T13:52:15.632Z,7.63
2017-12-27T13:54:43.098Z,7.47
2017-12-27T13:57:10.535Z,8.17
2017-12-27T13:59:37.983Z,7.43
2017-12-27T14:02:05.429Z,7.23
2017-12-27T14:04:33.640Z,7.23
2017-12-27T14:07:01.086Z,7.80
2017-12-27T14:09:29.285Z,6.83
2017-12-27T14:11:56.721Z,7.47
2017-12-27T14:14:24.936Z,7.17
2017-12-27T14:16:52.390Z,7.60
2017-12-27T14:19:19.839Z,7.13
2017-12-27T14:21:47.276Z,7.10
2017-12-27T14:24:15.488Z,6.80
2017-12-27T14:26:42.939Z,6.67
2017-12-27T14:29:10.389Z,6.67
2017-12-27T14:31:38.614Z,7.27
2017-12-27T14:34:06.146Z,6.97
2017-12-27T14:36:33.608Z,6.27
2017-12-27T14:39:01.771Z,6.20
2017-12-27T14:41:29.987Z,6.53
2017-12-27T14:43:57.429Z,6.37
2017-12-27T14:46:24.878Z,6.03
2017-12-27T14:48:53.187Z,5.87
2017-12-27T14:51:20.635Z,6.10
2017-12-27T14:53:48.087Z,5.73
2017-12-27T14:56:16.317Z,5.37
2017-12-27T14:58:43.771Z,5.90
2017-12-27T15:01:11.214Z,5.70
2017-12-27T15:03:38.668Z,5.33
2017-12-27T15:06:06.102Z,5.70
2017-12-27T15:08:34.339Z,5.30
2017-12-27T15:11:01.846Z,6.20
2017-12-27T15:13:29.296Z,5.63
2017-12-27T15:15:56.752Z,5.30
2017-12-27T15:18:24.211Z,5.33
2017-12-27T15:20:51.687Z,5.53
2017-12-27T15:23:19.129Z,5.03
2017-12-27T15:25:46.568Z,5.40
2017-12-27T15:28:14.021Z,4.80
2017-12-27T15:30:41.476Z,5.00
2017-12-27T15:33:08.924Z,5.17
2017-12-27T15:35:37.137Z,4.97
2017-12-27T15:38:04.579Z,5.33
2017-12-27T15:40:32.763Z,4.87
2017-12-27T15:43:00.239Z,5.93
2017-12-27T15:45:28.202Z,5.43
2017-12-27T15:47:55.667Z,4.87
2017-12-27T15:50:23.142Z,5.00
2017-12-27T15:52:50.622Z,5.07
2017-12-27T15:55:18.063Z,4.77
2017-12-27T15:57:45.524Z,5.07
2017-12-27T16:00:12.957Z,4.83
2017-12-27T16:02:41.184Z,4.63
2017-12-27T16:05:08.630Z,4.83
2017-12-27T16:07:36.091Z,4.97
2017-12-27T16:10:03.552Z,4.67
2017-12-27T16:12:31.007Z,4.60
2017-12-27T16:14:59.194Z,4.67
2017-12-27T16:17:26.641Z,4.40
2017-12-27T16:19:54.095Z,4.67
2017-12-27T16:22:22.318Z,4.20
2017-12-27T16:24:49.761Z,4.83
2017-12-27T16:27:17.192Z,4.00
2017-12-27T16:29:45.407Z,4.13
2017-12-27T16:32:12.839Z,4.37
2017-12-27T16:34:41.064Z,4.37
2017-12-27T16:37:08.506Z,4.33
2017-12-27T16:39:35.963Z,3.90
2017-12-27T16:42:03.400Z,4.10
2017-12-27T16:44:31.621Z,3.97
2017-12-27T16:46:59.071Z,4.30
2017-12-27T16:49:26.502Z,3.60
2017-12-27T16:51:54.711Z,3.47
2017-12-27T16:54:22.184Z,3.57
2017-12-27T16:56:49.621Z,3.00
2017-12-27T16:59:17.876Z,3.03
2017-12-27T17:01:45.330Z,2.50
2017-12-27T17:04:12.786Z,2.80
2017-12-27T17:06:40.228Z,2.70
2017-12-27T17:09:07.669Z,2.40
2017-12-27T17:11:35.115Z,2.63
2017-12-27T17:14:03.355Z,2.60
2017-12-27T17:16:30.786Z,2.17
2017-12-27T17:18:58.213Z,2.07
2017-12-27T17:21:26.426Z,2.20
2017-12-27T17:23:53.883Z,2.00
2017-12-27T17:26:21.341Z,1.97
2017-12-27T17:28:48.787Z,2.00
2017-12-27T17:31:16.990Z,1.80
2017-12-27T17:33:44.426Z,1.73
2017-12-27T17:36:11.878Z,1.60
2017-12-27T17:38:40.098Z,1.60
2017-12-27T17:41:07.521Z,1.70
2017-12-27T17:43:35.739Z,1.60
2017-12-27T17:46:03.191Z,1.40
2017-12-27T17:48:30.634Z,1.50
2017-12-27T17:50:58.834Z,1.80
2017-12-27T17:53:26.282Z,1.60
2017-12-27T17:55:54.785Z,1.73
2017-12-27T17:58:22.221Z,1.77
2017-12-27T18:00:50.424Z,1.60
2017-12-27T18:03:17.890Z,1.23
2017-12-27T18:05:45.361Z,2.00
2017-12-27T18:08:12.813Z,1.80
2017-12-27T18:10:40.271Z,1.80
2017-12-27T18:13:07.717Z,1.97
2017-12-27T18:15:35.935Z,1.57
2017-12-27T18:18:03.387Z,1.70
2017-12-27T18:20:30.829Z,1.70
2017-12-27T18:22:58.287Z,1.93
2017-12-27T18:25:26.512Z,1.70
2017-12-27T18:27:54.682Z,1.50
2017-12-27T18:30:22.132Z,1.87
2017-12-27T18:32:49.597Z,1.50
2017-12-27T18:35:17.052Z,1.70
2017-12-27T18:37:44.489Z,1.50
2017-12-27T18:40:12.721Z,1.87
2017-12-27T18:42:40.202Z,1.87
2017-12-27T18:45:07.643Z,1.53
2017-12-27T18:47:35.098Z,1.70
2017-12-27T18:50:02.581Z,2.70
2017-12-27T18:52:33.248Z,2.47
2017-12-27T18:55:00.737Z,1.87
2017-12-27T18:57:28.210Z,2.20
2017-12-27T18:59:55.652Z,2.23
2017-12-27T19:02:23.855Z,2.23
2017-12-27T19:04:51.301Z,2.10
2017-12-27T19:07:18.784Z,1.77
2017-12-27T19:09:46.273Z,1.73
2017-12-27T19:12:13.723Z,1.93
2017-12-27T19:14:41.181Z,1.90
2017-12-27T19:17:08.633Z,1.80
2017-12-27T19:19:36.090Z,1.90
2017-12-27T19:22:03.519Z,2.50
2017-12-27T19:24:30.967Z,1.93
2017-12-27T19:26:58.461Z,1.73
2017-12-27T19:29:26.703Z,1.97
2017-12-27T19:31:54.159Z,1.90
2017-12-27T19:34:21.609Z,2.33
2017-12-27T19:36:49.043Z,1.77
2017-12-27T19:39:16.493Z,2.33
2017-12-27T19:41:44.710Z,2.07
2017-12-27T19:44:12.185Z,1.73
2017-12-27T19:46:39.632Z,2.17
2017-12-27T19:49:07.085Z,2.27
2017-12-27T19:51:34.534Z,2.70
2017-12-27T19:54:01.983Z,2.30
2017-12-27T19:56:29.485Z,2.17
2017-12-27T19:58:56.946Z,2.37
2017-12-27T20:01:24.401Z,2.47
2017-12-27T20:03:51.876Z,2.37
2017-12-27T20:06:19.314Z,2.10
2017-12-27T20:08:46.778Z,2.60
2017-12-27T20:11:14.209Z,2.57
2017-12-27T20:13:42.423Z,2.60
2017-12-27T20:16:09.862Z,2.57
2017-12-27T20:18:38.076Z,2.47
2017-12-27T20:21:05.520Z,2.47
2017-12-27T20:23:32.965Z,2.47
2017-12-27T20:26:01.179Z,2.90
2017-12-27T20:28:28.623Z,3.27
2017-12-27T20:30:56.675Z,2.87
2017-12-27T20:33:24.888Z,2.40
2017-12-27T20:35:52.339Z,3.00
2017-12-27T20:38:19.775Z,2.67
2017-12-27T20:40:48.021Z,2.53
2017-12-27T20:43:15.453Z,2.67
2017-12-27T20:45:42.903Z,2.67
2017-12-27T20:48:10.346Z,2.80
2017-12-27T20:50:38.572Z,2.60
2017-12-27T20:53:06.683Z,2.40
2017-12-27T20:55:34.153Z,2.57
2017-12-27T20:58:01.610Z,3.10
2017-12-27T21:00:29.183Z,2.60
2017-12-27T21:02:56.631Z,2.50
2017-12-27T21:05:24.080Z,2.97
2017-12-27T21:07:51.521Z,2.57
2017-12-27T21:10:18.975Z,3.17
2017-12-27T21:12:46.448Z,2.80
2017-12-27T21:15:13.894Z,3.00
2017-12-27T21:17:41.376Z,3.23
2017-12-27T21:20:08.806Z,2.97
2017-12-27T21:22:37.005Z,2.63
2017-12-27T21:25:04.462Z,2.80
2017-12-27T21:27:31.927Z,2.73
2017-12-27T21:29:59.388Z,2.40
2017-12-27T21:32:26.836Z,2.73
2017-12-27T21:34:55.662Z,2.10
2017-12-27T21:37:23.113Z,2.37
2017-12-27T21:39:50.576Z,2.40
2017-12-27T21:42:18.026Z,1.90
2017-12-27T21:44:45.495Z,2.37
2017-12-27T21:47:18.754Z,2.37
2017-12-27T21:49:51.883Z,2.30
2017-12-27T21:52:19.340Z,2.00
2017-12-27T21:54:46.762Z,2.40
2017-12-27T21:57:14.217Z,2.30
2017-12-27T21:59:58.463Z,2.30
2017-12-27T22:02:25.915Z,2.20
2017-12-27T22:04:53.353Z,2.10
2017-12-27T22:07:20.825Z,2.50
2017-12-27T22:09:48.285Z,2.43
2017-12-27T22:12:16.134Z,2.67
2017-12-27T22:14:43.603Z,2.47
2017-12-27T22:17:11.042Z,2.60
2017-12-27T22:19:39.279Z,2.37
2017-12-27T22:22:07.487Z,2.50
2017-12-27T22:24:35.687Z,2.47
2017-12-27T22:27:03.138Z,2.20
2017-12-27T22:29:31.383Z,2.23
2017-12-27T22:31:58.826Z,2.03
2017-12-27T22:34:26.286Z,2.07
2017-12-27T22:36:53.739Z,2.50
2017-12-27T22:39:21.199Z,2.30
2017-12-27T22:41:48.666Z,2.23
2017-12-27T22:44:17.472Z,2.23
2017-12-27T22:46:44.915Z,2.50
2017-12-27T22:49:12.389Z,2.07
2017-12-27T22:51:39.836Z,2.00
2017-12-27T22:54:07.292Z,2.07
2017-12-27T22:56:34.761Z,2.23
2017-12-27T22:59:02.215Z,2.57
2017-12-27T23:01:30.441Z,2.13
2017-12-27T23:03:58.686Z,2.60
2017-12-27T23:06:26.133Z,1.93
2017-12-27T23:08:53.568Z,2.20
2017-12-27T23:11:21.015Z,2.17
2017-12-27T23:13:48.470Z,1.77
2017-12-27T23:16:15.949Z,1.80
2017-12-27T23:18:43.412Z,2.23
2017-12-27T23:21:19.220Z,1.73
2017-12-27T23:23:48.164Z,2.43
2017-12-27T23:26:15.608Z,1.93
2017-12-27T23:28:43.483Z,2.00
2017-12-27T23:31:10.981Z,1.90
2017-12-27T23:33:38.493Z,2.03
2017-12-27T23:36:05.943Z,1.57
2017-12-27T23:38:34.205Z,1.53
2017-12-27T23:41:02.499Z,1.77
2017-12-27T23:43:30.150Z,2.07
2017-12-27T23:45:57.671Z,1.93
2017-12-27T23:48:25.670Z,2.00
2017-12-27T23:50:53.888Z,2.10
2017-12-27T23:53:22.145Z,2.30
2017-12-27T23:55:53.526Z,1.80
2017-12-27T23:58:20.977Z,1.80
